SLVRSLCB

Guest
Details From SLVR - VIRU VIRU INTL
To SLCB - JORGE WILSTERMAN
Flight Number -
Tags decoded
Created
Modified
Stats Distance 175 nm / 324 km
Max Altitude 0 ft / 0 m
Waypoints 3
Social Downloads 0
Likes 0
Share VATSIM

Download

Looking for another format? Having issues loading an existing format? Contact us
Advertisement - Login to hide

Notes

Requested: SLVR SANSO1 UW677 CBA SLCB Unmatched points: SANSO1 UW677

Route

SLVR CBA SLCB

ID Type Via Altitude Latitude Longitude Leg Dist Tot Dist Heading (true) Name
O SLVR APT - 0 ft / 0 m -17.64476˚ -63.13536˚ - 0 nm - VIRU VIRU INTL
CBA VOR - 0 ft / 0 m -17.42126˚ -66.17904˚ 174 nm 174 nm 274° / 275° COCHABAMBA VOR-DME
O SLCB APT - 0 ft / 0 m -17.42039˚ -66.17717˚ 0 nm 174 nm 64° / 64° JORGE WILSTERMAN

Altitude Profile

Advertisement - Login to hide

Weather


0- 5 10 15 20 25 30 35+ Temperature / ° C

Clouds and Precipitation
Forecast for 2017-12-12 00:00 UTC. Updated 2 hours ago

Ground ~20,000 ft ~40,000 ft Winds

SLVR

Details ICAO SLVR (VVI)
Name VIRU VIRU INTL
Region Bolivia
Timezone America/La_Paz (UTC-4.0)
Stats Elevation 1,225 ft / 373 m (AMSL)
Location -17.644755° -63.135362°
Runways 1
Magnetic Variation 11.891° W

METAR

SLVR 120100Z 16004KT 9999 NSC 25/23 Q1009

Decode

TAF

TAF SLVR 112135Z 1200/1224 VRB02KT 9999 NSC TX34/1219Z TN21/1210Z BECMG 1214/1216 34010KT SCT023 BECMG 1222/1224 34005KT NSC

Decode

Departure Runways

ID Width Length Bearing (true) Bearing (mag) Surface Threshold Offset Overrun Length
16 148 ft / 45 m 11,519 ft / 3,511 m 147.35° 159.24° Concrete 0 ft / 0 m 197 ft / 60 m
34 148 ft / 45 m 11,519 ft / 3,511 m 327.34° 339.23° Concrete 0 ft / 0 m 197 ft / 60 m

SLCB

Details ICAO SLCB (CBB)
Name JORGE WILSTERMAN
Region Bolivia
Timezone America/La_Paz (UTC-4.0)
Stats Elevation 8,360 ft / 2,548 m (AMSL)
Location -17.420390° -66.177166°
Runways 2
Magnetic Variation 9.392° W

METAR

SLCB 120100Z 13007KT 9999 FEW030 BKN070 19/06 Q1024

Decode

TAF

TAF SLCB 111600Z 1200/1224 34005KT 9999 FEW027 SCT070 TX28/1219Z TN09/1210Z PROB30 TEMPO 1204/1206 8000 RA SCT027 FEW030CB BKN070 TEMPO 1210/1212 5000 FU BECMG 1216/1218 29012KT FEW030 FEW033CB

Decode

Destination Runways

ID Width Length Bearing (true) Bearing (mag) Surface Threshold Offset Overrun Length
04 148 ft / 45 m 8,716 ft / 2,657 m 37.26° 46.65° Asphalt 0 ft / 0 m 0 ft / 0 m
14 148 ft / 45 m 12,480 ft / 3,804 m 132.10° 141.49° Asphalt 328 ft / 100 m 199 ft / 61 m
22 148 ft / 45 m 8,716 ft / 2,657 m 217.25° 226.64° Asphalt 732 ft / 223 m 0 ft / 0 m
32 148 ft / 45 m 12,480 ft / 3,804 m 312.09° 321.48° Asphalt 984 ft / 300 m 201 ft / 61 m

Approach Navaids

Runway Type Ident Frequency Range Bearing (true) Bearing (mag) Slope Elevation
32 Localiser ILCO 110.50 MHz 18 nm / 33 km 311.99° 321.38° - 8,360 ft / 2,548 m (AMSL)
32 Glidescope ILCO 110.50 MHz 10 nm / 19 km 312.10° 321.49° 3.30° 8,360 ft / 2,548 m (AMSL)
32 DME ILCO 110.50 MHz 18 nm / 33 km - - - 8,360 ft / 2,548 m (AMSL)

Popular Alternatives